sensor_id;sensor_type;location;lat;lon;timestamp;pressure;altitude;pressure_sealevel;temperature;humidity
48630;BME280;34426;52.180;4.462;2023-04-30T00:01:49;102488.78;;;8.39;82.20
48630;BME280;34426;52.180;4.462;2023-04-30T00:04:16;102488.53;;;8.34;82.50
48630;BME280;34426;52.180;4.462;2023-04-30T00:06:45;102483.56;;;8.29;82.32
48630;BME280;34426;52.180;4.462;2023-04-30T00:09:12;102481.66;;;8.30;82.71
48630;BME280;34426;52.180;4.462;2023-04-30T00:11:40;102481.84;;;8.28;82.92
48630;BME280;34426;52.180;4.462;2023-04-30T00:14:07;102486.78;;;8.26;82.61
48630;BME280;34426;52.180;4.462;2023-04-30T00:16:35;102484.66;;;8.22;83.08
48630;BME280;34426;52.180;4.462;2023-04-30T00:19:03;102488.94;;;8.11;83.15
48630;BME280;34426;52.180;4.462;2023-04-30T00:21:31;102490.03;;;8.17;83.14
48630;BME280;34426;52.180;4.462;2023-04-30T00:24:01;102489.78;;;8.05;83.34
48630;BME280;34426;52.180;4.462;2023-04-30T00:26:29;102491.28;;;8.08;83.30
48630;BME280;34426;52.180;4.462;2023-04-30T00:28:56;102488.50;;;8.08;83.03
48630;BME280;34426;52.180;4.462;2023-04-30T00:31:24;102483.13;;;7.99;83.13
48630;BME280;34426;52.180;4.462;2023-04-30T00:33:51;102488.00;;;7.84;83.62
48630;BME280;34426;52.180;4.462;2023-04-30T00:36:21;102490.13;;;7.82;84.16
48630;BME280;34426;52.180;4.462;2023-04-30T00:38:48;102487.13;;;7.84;84.56
48630;BME280;34426;52.180;4.462;2023-04-30T00:41:16;102486.28;;;7.83;84.15
48630;BME280;34426;52.180;4.462;2023-04-30T00:43:44;102479.44;;;7.92;84.45
48630;BME280;34426;52.180;4.462;2023-04-30T00:46:15;102488.88;;;7.91;84.62
48630;BME280;34426;52.180;4.462;2023-04-30T00:48:43;102489.72;;;7.85;84.50
48630;BME280;34426;52.180;4.462;2023-04-30T00:51:10;102498.47;;;7.69;85.17
48630;BME280;34426;52.180;4.462;2023-04-30T00:53:40;102500.19;;;7.70;84.88
48630;BME280;34426;52.180;4.462;2023-04-30T00:56:09;102501.91;;;7.71;85.29
48630;BME280;34426;52.180;4.462;2023-04-30T00:58:37;102494.84;;;7.75;84.74
48630;BME280;34426;52.180;4.462;2023-04-30T01:01:08;102497.63;;;7.75;84.71
48630;BME280;34426;52.180;4.462;2023-04-30T01:03:35;102497.16;;;7.65;84.42
48630;BME280;34426;52.180;4.462;2023-04-30T01:06:03;102498.22;;;7.64;84.93
48630;BME280;34426;52.180;4.462;2023-04-30T01:08:30;102492.47;;;7.72;84.64
48630;BME280;34426;52.180;4.462;2023-04-30T01:11:11;102497.81;;;7.67;84.10
48630;BME280;34426;52.180;4.462;2023-04-30T01:13:52;102499.00;;;7.45;84.37
48630;BME280;34426;52.180;4.462;2023-04-30T01:16:24;102498.16;;;7.51;85.17
48630;BME280;34426;52.180;4.462;2023-04-30T01:18:56;102497.06;;;7.45;85.58
48630;BME280;34426;52.180;4.462;2023-04-30T01:21:28;102494.44;;;7.30;86.32
48630;BME280;34426;52.180;4.462;2023-04-30T01:24:14;102497.22;;;7.30;86.27
48630;BME280;34426;52.180;4.462;2023-04-30T01:26:58;102495.75;;;7.34;86.11
48630;BME280;34426;52.180;4.462;2023-04-30T01:29:28;102502.41;;;7.40;86.13
48630;BME280;34426;52.180;4.462;2023-04-30T01:31:57;102504.97;;;7.35;86.33
48630;BME280;34426;52.180;4.462;2023-04-30T01:34:24;102509.88;;;7.33;86.38
48630;BME280;34426;52.180;4.462;2023-04-30T01:37:03;102515.00;;;7.29;86.34
48630;BME280;34426;52.180;4.462;2023-04-30T01:39:44;102496.81;;;7.33;86.43
48630;BME280;34426;52.180;4.462;2023-04-30T01:42:15;102502.38;;;7.33;86.99
48630;BME280;34426;52.180;4.462;2023-04-30T01:45:02;102506.25;;;7.39;86.39
48630;BME280;34426;52.180;4.462;2023-04-30T01:47:40;102505.38;;;7.39;86.72
48630;BME280;34426;52.180;4.462;2023-04-30T01:50:21;102509.03;;;7.39;86.64
48630;BME280;34426;52.180;4.462;2023-04-30T01:52:52;102508.78;;;7.27;86.41
48630;BME280;34426;52.180;4.462;2023-04-30T01:55:26;102505.34;;;7.25;87.11
48630;BME280;34426;52.180;4.462;2023-04-30T01:57:57;102510.16;;;7.10;86.96
48630;BME280;34426;52.180;4.462;2023-04-30T02:00:28;102502.22;;;7.07;87.38
48630;BME280;34426;52.180;4.462;2023-04-30T02:02:56;102501.41;;;7.13;87.40
48630;BME280;34426;52.180;4.462;2023-04-30T02:05:23;102495.59;;;7.08;87.99
48630;BME280;34426;52.180;4.462;2023-04-30T02:07:54;102494.06;;;7.06;87.13
48630;BME280;34426;52.180;4.462;2023-04-30T02:10:23;102493.00;;;7.07;87.79
48630;BME280;34426;52.180;4.462;2023-04-30T02:12:54;102490.63;;;7.04;87.49
48630;BME280;34426;52.180;4.462;2023-04-30T02:15:21;102492.31;;;6.98;87.88
48630;BME280;34426;52.180;4.462;2023-04-30T02:17:51;102490.19;;;7.00;87.53
48630;BME280;34426;52.180;4.462;2023-04-30T02:20:18;102494.03;;;6.99;87.39
48630;BME280;34426;52.180;4.462;2023-04-30T02:22:46;102498.78;;;7.05;87.99
48630;BME280;34426;52.180;4.462;2023-04-30T02:25:13;102508.19;;;7.04;87.78
48630;BME280;34426;52.180;4.462;2023-04-30T02:27:40;102501.97;;;7.02;87.96
48630;BME280;34426;52.180;4.462;2023-04-30T02:30:08;102492.72;;;6.95;87.91
48630;BME280;34426;52.180;4.462;2023-04-30T02:32:39;102484.97;;;6.84;87.56
48630;BME280;34426;52.180;4.462;2023-04-30T02:35:09;102488.22;;;6.94;88.33
48630;BME280;34426;52.180;4.462;2023-04-30T02:37:36;102492.72;;;6.95;88.20
48630;BME280;34426;52.180;4.462;2023-04-30T02:40:07;102484.56;;;6.93;88.04
48630;BME280;34426;52.180;4.462;2023-04-30T02:42:35;102487.13;;;6.88;87.99
48630;BME280;34426;52.180;4.462;2023-04-30T02:45:02;102485.88;;;6.91;88.43
48630;BME280;34426;52.180;4.462;2023-04-30T02:47:30;102487.13;;;6.88;88.31
48630;BME280;34426;52.180;4.462;2023-04-30T02:49:57;102482.66;;;6.94;88.66
48630;BME280;34426;52.180;4.462;2023-04-30T02:52:26;102487.16;;;6.95;88.82
48630;BME280;34426;52.180;4.462;2023-04-30T02:54:54;102491.44;;;6.91;89.67
48630;BME280;34426;52.180;4.462;2023-04-30T02:57:21;102486.75;;;6.98;90.01
48630;BME280;34426;52.180;4.462;2023-04-30T02:59:48;102489.38;;;7.06;89.93
48630;BME280;34426;52.180;4.462;2023-04-30T03:02:16;102488.97;;;7.09;90.00
48630;BME280;34426;52.180;4.462;2023-04-30T03:04:44;102485.78;;;7.12;89.58
48630;BME280;34426;52.180;4.462;2023-04-30T03:07:11;102490.69;;;7.10;89.57
48630;BME280;34426;52.180;4.462;2023-04-30T03:09:42;102488.72;;;7.04;89.87
48630;BME280;34426;52.180;4.462;2023-04-30T03:12:09;102485.47;;;7.00;90.15
48630;BME280;34426;52.180;4.462;2023-04-30T03:14:36;102488.50;;;7.06;90.36
48630;BME280;34426;52.180;4.462;2023-04-30T03:17:04;102487.66;;;7.05;90.42
48630;BME280;34426;52.180;4.462;2023-04-30T03:19:31;102482.09;;;7.05;90.23
48630;BME280;34426;52.180;4.462;2023-04-30T03:21:59;102487.66;;;7.05;89.94
48630;BME280;34426;52.180;4.462;2023-04-30T03:24:26;102485.53;;;7.07;90.26
48630;BME280;34426;52.180;4.462;2023-04-30T03:26:59;102475.97;;;7.16;90.79
48630;BME280;34426;52.180;4.462;2023-04-30T03:29:26;102480.66;;;7.16;90.82
48630;BME280;34426;52.180;4.462;2023-04-30T03:31:54;102479.16;;;7.13;90.92
48630;BME280;34426;52.180;4.462;2023-04-30T03:34:21;102474.94;;;7.24;91.23
48630;BME280;34426;52.180;4.462;2023-04-30T03:36:49;102481.81;;;7.28;91.00
48630;BME280;34426;52.180;4.462;2023-04-30T03:39:16;102484.78;;;7.26;90.85
48630;BME280;34426;52.180;4.462;2023-04-30T03:41:44;102477.88;;;7.16;90.64
48630;BME280;34426;52.180;4.462;2023-04-30T03:44:18;102476.16;;;7.15;90.65
48630;BME280;34426;52.180;4.462;2023-04-30T03:46:45;102475.31;;;7.14;91.17
48630;BME280;34426;52.180;4.462;2023-04-30T03:49:12;102482.09;;;7.05;91.59
48630;BME280;34426;52.180;4.462;2023-04-30T03:51:39;102479.56;;;7.10;91.71
48630;BME280;34426;52.180;4.462;2023-04-30T03:54:07;102475.31;;;7.14;91.49
48630;BME280;34426;52.180;4.462;2023-04-30T03:56:34;102481.28;;;7.11;91.31
48630;BME280;34426;52.180;4.462;2023-04-30T03:59:02;102479.56;;;7.10;91.72
48630;BME280;34426;52.180;4.462;2023-04-30T04:01:33;102464.59;;;7.11;91.02
48630;BME280;34426;52.180;4.462;2023-04-30T04:04:01;102476.13;;;7.08;91.21
48630;BME280;34426;52.180;4.462;2023-04-30T04:06:28;102473.94;;;7.04;90.72
48630;BME280;34426;52.180;4.462;2023-04-30T04:08:55;102470.06;;;6.98;91.19
48630;BME280;34426;52.180;4.462;2023-04-30T04:11:22;102469.00;;;6.99;91.16
48630;BME280;34426;52.180;4.462;2023-04-30T04:13:49;102467.47;;;6.96;91.58
48630;BME280;34426;52.180;4.462;2023-04-30T04:16:19;102469.66;;;7.01;91.75
48630;BME280;34426;52.180;4.462;2023-04-30T04:18:49;102466.72;;;7.09;91.69
48630;BME280;34426;52.180;4.462;2023-04-30T04:21:16;102464.81;;;7.16;91.21
48630;BME280;34426;52.180;4.462;2023-04-30T04:23:44;102471.88;;;7.12;90.80
48630;BME280;34426;52.180;4.462;2023-04-30T04:26:11;102470.81;;;7.13;91.28
48630;BME280;34426;52.180;4.462;2023-04-30T04:28:38;102468.44;;;7.10;91.10
48630;BME280;34426;52.180;4.462;2023-04-30T04:31:09;102479.75;;;7.09;91.01
48630;BME280;34426;52.180;4.462;2023-04-30T04:33:37;102474.81;;;7.04;90.92
48630;BME280;34426;52.180;4.462;2023-04-30T04:36:06;102475.22;;;7.01;91.08
48630;BME280;34426;52.180;4.462;2023-04-30T04:38:34;102473.69;;;6.98;91.09
48630;BME280;34426;52.180;4.462;2023-04-30T04:41:01;102477.75;;;6.96;91.27
48630;BME280;34426;52.180;4.462;2023-04-30T04:43:29;102484.63;;;7.00;91.63
48630;BME280;34426;52.180;4.462;2023-04-30T04:45:57;102485.47;;;7.00;91.45
48630;BME280;34426;52.180;4.462;2023-04-30T04:48:24;102488.06;;;7.02;91.41
48630;BME280;34426;52.180;4.462;2023-04-30T04:50:54;102485.03;;;6.97;91.74
48630;BME280;34426;52.180;4.462;2023-04-30T04:53:23;102487.44;;;7.07;92.00
48630;BME280;34426;52.180;4.462;2023-04-30T04:55:54;102489.16;;;7.08;91.59
48630;BME280;34426;52.180;4.462;2023-04-30T04:58:24;102487.50;;;7.13;91.26
48630;BME280;34426;52.180;4.462;2023-04-30T05:00:51;102481.53;;;7.16;91.57
48630;BME280;34426;52.180;4.462;2023-04-30T05:03:19;102492.25;;;7.19;91.39
48630;BME280;34426;52.180;4.462;2023-04-30T05:05:46;102486.09;;;7.30;91.34
48630;BME280;34426;52.180;4.462;2023-04-30T05:08:13;102482.47;;;7.30;91.37
48630;BME280;34426;52.180;4.462;2023-04-30T05:10:43;102490.41;;;7.33;91.26
48630;BME280;34426;52.180;4.462;2023-04-30T05:13:10;102492.97;;;7.34;91.58
48630;BME280;34426;52.180;4.462;2023-04-30T05:15:46;102490.41;;;7.33;91.00
48630;BME280;34426;52.180;4.462;2023-04-30T05:18:13;102495.97;;;7.40;91.46
48630;BME280;34426;52.180;4.462;2023-04-30T05:20:41;102496.00;;;7.46;91.22
48630;BME280;34426;52.180;4.462;2023-04-30T05:23:08;102494.72;;;7.49;90.60
48630;BME280;34426;52.180;4.462;2023-04-30T05:25:36;102502.50;;;7.60;91.09
48630;BME280;34426;52.180;4.462;2023-04-30T05:28:06;102496.50;;;7.63;90.71
48630;BME280;34426;52.180;4.462;2023-04-30T05:30:33;102496.09;;;7.66;90.32
48630;BME280;34426;52.180;4.462;2023-04-30T05:33:01;102499.13;;;7.71;90.28
48630;BME280;34426;52.180;4.462;2023-04-30T05:35:29;102501.28;;;7.76;90.28
48630;BME280;34426;52.180;4.462;2023-04-30T05:37:56;102498.69;;;7.74;89.94
48630;BME280;34426;52.180;4.462;2023-04-30T05:40:24;102501.72;;;7.79;90.30
48630;BME280;34426;52.180;4.462;2023-04-30T05:42:53;102506.00;;;7.88;89.79
48630;BME280;34426;52.180;4.462;2023-04-30T05:45:23;102503.47;;;8.00;89.48
48630;BME280;34426;52.180;4.462;2023-04-30T05:47:50;102512.03;;;7.98;89.25
48630;BME280;34426;52.180;4.462;2023-04-30T05:50:18;102516.81;;;8.11;89.06
48630;BME280;34426;52.180;4.462;2023-04-30T05:52:45;102522.16;;;8.13;88.24
48630;BME280;34426;52.180;4.462;2023-04-30T05:55:12;102520.25;;;8.20;87.35
48630;BME280;34426;52.180;4.462;2023-04-30T05:57:40;102519.41;;;8.19;87.38
48630;BME280;34426;52.180;4.462;2023-04-30T06:00:08;102520.44;;;8.25;85.73
48630;BME280;34426;52.180;4.462;2023-04-30T06:02:37;102525.59;;;8.28;86.28
48630;BME280;34426;52.180;4.462;2023-04-30T06:05:05;102520.50;;;8.38;86.51
48630;BME280;34426;52.180;4.462;2023-04-30T06:07:33;102519.00;;;8.42;86.77
48630;BME280;34426;52.180;4.462;2023-04-30T06:10:03;102520.53;;;8.45;85.68
48630;BME280;34426;52.180;4.462;2023-04-30T06:12:31;102521.81;;;8.49;85.23
48630;BME280;34426;52.180;4.462;2023-04-30T06:14:58;102526.75;;;8.53;84.17
48630;BME280;34426;52.180;4.462;2023-04-30T06:17:25;102516.22;;;8.68;84.71
48630;BME280;34426;52.180;4.462;2023-04-30T06:19:54;102515.38;;;8.75;83.22
48630;BME280;34426;52.180;4.462;2023-04-30T06:22:22;102513.44;;;8.82;83.18
48630;BME280;34426;52.180;4.462;2023-04-30T06:24:49;102515.38;;;8.88;83.30
48630;BME280;34426;52.180;4.462;2023-04-30T06:27:17;102515.34;;;8.94;82.85
48630;BME280;34426;52.180;4.462;2023-04-30T06:29:44;102515.78;;;8.98;82.88
48630;BME280;34426;52.180;4.462;2023-04-30T06:32:11;102519.44;;;9.05;82.32
48630;BME280;34426;52.180;4.462;2023-04-30T06:34:38;102517.66;;;9.17;81.79
48630;BME280;34426;52.180;4.462;2023-04-30T06:37:08;102521.53;;;9.16;81.05
48630;BME280;34426;52.180;4.462;2023-04-30T06:39:35;102524.31;;;9.29;80.79
48630;BME280;34426;52.180;4.462;2023-04-30T06:42:02;102523.22;;;9.30;81.54
48630;BME280;34426;52.180;4.462;2023-04-30T06:44:30;102522.16;;;9.31;80.54
48630;BME280;34426;52.180;4.462;2023-04-30T06:46:57;102518.72;;;9.36;80.83
48630;BME280;34426;52.180;4.462;2023-04-30T06:49:24;102530.06;;;9.41;80.99
48630;BME280;34426;52.180;4.462;2023-04-30T06:51:52;102525.34;;;9.42;79.79
48630;BME280;34426;52.180;4.462;2023-04-30T06:54:21;102520.56;;;9.55;80.47
48630;BME280;34426;52.180;4.462;2023-04-30T06:56:48;102513.22;;;9.61;80.39
48630;BME280;34426;52.180;4.462;2023-04-30T06:59:15;102521.81;;;9.66;80.20
48630;BME280;34426;52.180;4.462;2023-04-30T07:01:43;102517.25;;;9.78;79.67
48630;BME280;34426;52.180;4.462;2023-04-30T07:04:10;102517.88;;;9.80;79.08
48630;BME280;34426;52.180;4.462;2023-04-30T07:06:37;102515.50;;;9.84;78.93
48630;BME280;34426;52.180;4.462;2023-04-30T07:09:05;102518.28;;;9.90;79.27
48630;BME280;34426;52.180;4.462;2023-04-30T07:11:34;102518.84;;;9.99;79.17
48630;BME280;34426;52.180;4.462;2023-04-30T07:14:01;102520.31;;;10.08;77.75
48630;BME280;34426;52.180;4.462;2023-04-30T07:16:28;102519.44;;;10.08;76.89
48630;BME280;34426;52.180;4.462;2023-04-30T07:18:56;102529.97;;;10.12;77.67
48630;BME280;34426;52.180;4.462;2023-04-30T07:21:23;102515.09;;;10.18;78.24
48630;BME280;34426;52.180;4.462;2023-04-30T07:23:51;102523.25;;;10.26;78.06
48630;BME280;34426;52.180;4.462;2023-04-30T07:26:18;102528.38;;;10.29;77.86
48630;BME280;34426;52.180;4.462;2023-04-30T07:28:48;102521.50;;;10.32;78.32
48630;BME280;34426;52.180;4.462;2023-04-30T07:31:16;102528.28;;;10.43;76.69
48630;BME280;34426;52.180;4.462;2023-04-30T07:33:43;102522.63;;;10.49;77.03
48630;BME280;34426;52.180;4.462;2023-04-30T07:36:10;102518.94;;;10.55;76.81
48630;BME280;34426;52.180;4.462;2023-04-30T07:38:37;102521.22;;;10.65;77.57
48630;BME280;34426;52.180;4.462;2023-04-30T07:41:05;102526.56;;;10.73;76.61
48630;BME280;34426;52.180;4.462;2023-04-30T07:43:32;102523.69;;;10.80;76.33
48630;BME280;34426;52.180;4.462;2023-04-30T07:46:01;102521.22;;;10.90;75.87
48630;BME280;34426;52.180;4.462;2023-04-30T07:48:28;102514.53;;;10.91;75.55
48630;BME280;34426;52.180;4.462;2023-04-30T07:50:56;102518.81;;;10.93;76.49
48630;BME280;34426;52.180;4.462;2023-04-30T07:53:23;102524.13;;;11.02;75.97
48630;BME280;34426;52.180;4.462;2023-04-30T07:55:51;102519.38;;;11.02;75.04
48630;BME280;34426;52.180;4.462;2023-04-30T07:58:18;102522.50;;;11.12;75.27
48630;BME280;34426;52.180;4.462;2023-04-30T08:00:46;102520.56;;;11.13;75.21
48630;BME280;34426;52.180;4.462;2023-04-30T08:03:15;102522.06;;;11.15;75.01
48630;BME280;34426;52.180;4.462;2023-04-30T08:05:42;102518.34;;;11.21;75.82
48630;BME280;34426;52.180;4.462;2023-04-30T08:08:10;102523.16;;;11.32;74.95
48630;BME280;34426;52.180;4.462;2023-04-30T08:10:38;102517.88;;;11.43;74.52
48630;BME280;34426;52.180;4.462;2023-04-30T08:13:05;102515.22;;;11.48;74.15
48630;BME280;34426;52.180;4.462;2023-04-30T08:15:33;102516.31;;;11.47;74.64
48630;BME280;34426;52.180;4.462;2023-04-30T08:18:01;102510.41;;;11.55;74.54
48630;BME280;34426;52.180;4.462;2023-04-30T08:20:31;102509.69;;;11.59;73.63
48630;BME280;34426;52.180;4.462;2023-04-30T08:22:58;102513.63;;;11.70;73.74
48630;BME280;34426;52.180;4.462;2023-04-30T08:25:26;102512.06;;;11.74;73.34
48630;BME280;34426;52.180;4.462;2023-04-30T08:27:53;102520.44;;;11.81;73.01
48630;BME280;34426;52.180;4.462;2023-04-30T08:30:20;102519.13;;;11.83;72.87
48630;BME280;34426;52.180;4.462;2023-04-30T08:32:48;102519.03;;;11.90;71.35
48630;BME280;34426;52.180;4.462;2023-04-30T08:35:16;102517.22;;;11.95;72.24
48630;BME280;34426;52.180;4.462;2023-04-30T08:37:45;102514.81;;;11.99;71.30
48630;BME280;34426;52.180;4.462;2023-04-30T08:40:12;102517.22;;;11.95;71.44
48630;BME280;34426;52.180;4.462;2023-04-30T08:42:45;102518.78;;;12.10;71.98
48630;BME280;34426;52.180;4.462;2023-04-30T08:45:15;102523.41;;;12.16;71.58
48630;BME280;34426;52.180;4.462;2023-04-30T08:47:44;102520.75;;;12.21;71.09
48630;BME280;34426;52.180;4.462;2023-04-30T08:50:12;102518.56;;;12.23;70.71
48630;BME280;34426;52.180;4.462;2023-04-30T08:52:40;102518.06;;;12.26;71.83
48630;BME280;34426;52.180;4.462;2023-04-30T08:55:10;102517.22;;;12.25;71.47
48630;BME280;34426;52.180;4.462;2023-04-30T08:57:37;102519.47;;;12.35;71.65
48630;BME280;34426;52.180;4.462;2023-04-30T09:00:06;102512.88;;;12.41;71.47
48630;BME280;34426;52.180;4.462;2023-04-30T09:02:34;102515.22;;;12.44;71.20
48630;BME280;34426;52.180;4.462;2023-04-30T09:05:01;102516.22;;;12.61;70.70
48630;BME280;34426;52.180;4.462;2023-04-30T09:07:31;102517.34;;;12.72;69.95
48630;BME280;34426;52.180;4.462;2023-04-30T09:09:59;102515.03;;;12.81;70.68
48630;BME280;34426;52.180;4.462;2023-04-30T09:12:28;102510.66;;;12.85;69.51
48630;BME280;34426;52.180;4.462;2023-04-30T09:15:00;102507.72;;;12.91;69.25
48630;BME280;34426;52.180;4.462;2023-04-30T09:17:27;102517.38;;;12.95;69.85
48630;BME280;34426;52.180;4.462;2023-04-30T09:19:56;102509.56;;;12.97;68.96
48630;BME280;34426;52.180;4.462;2023-04-30T09:22:32;102513.81;;;13.00;68.85
48630;BME280;34426;52.180;4.462;2023-04-30T09:25:02;102508.81;;;13.14;68.79
48630;BME280;34426;52.180;4.462;2023-04-30T09:27:31;102508.97;;;13.30;68.97
48630;BME280;34426;52.180;4.462;2023-04-30T09:29:58;102508.09;;;13.42;68.54
48630;BME280;34426;52.180;4.462;2023-04-30T09:32:26;102499.03;;;13.51;67.49
48630;BME280;34426;52.180;4.462;2023-04-30T09:34:53;102492.28;;;13.64;67.14
48630;BME280;34426;52.180;4.462;2023-04-30T09:37:21;102499.59;;;13.65;67.46
48630;BME280;34426;52.180;4.462;2023-04-30T09:40:00;102495.41;;;13.79;67.82
48630;BME280;34426;52.180;4.462;2023-04-30T09:42:28;102505.84;;;13.67;67.64
48630;BME280;34426;52.180;4.462;2023-04-30T09:44:55;102496.47;;;13.90;66.38
48630;BME280;34426;52.180;4.462;2023-04-30T09:47:20;102500.44;;;14.06;66.22
48630;BME280;34426;52.180;4.462;2023-04-30T09:49:47;102502.84;;;14.14;64.54
48630;BME280;34426;52.180;4.462;2023-04-30T09:52:14;102501.84;;;14.20;65.35
48630;BME280;34426;52.180;4.462;2023-04-30T09:54:40;102497.94;;;14.21;64.86
48630;BME280;34426;52.180;4.462;2023-04-30T09:57:09;102489.09;;;14.29;63.59
48630;BME280;34426;52.180;4.462;2023-04-30T09:59:35;102483.72;;;14.27;65.02
48630;BME280;34426;52.180;4.462;2023-04-30T10:02:06;102478.72;;;14.46;64.29
48630;BME280;34426;52.180;4.462;2023-04-30T10:04:34;102482.81;;;14.55;64.80
48630;BME280;34426;52.180;4.462;2023-04-30T10:07:04;102483.34;;;14.69;65.24
48630;BME280;34426;52.180;4.462;2023-04-30T10:09:38;102485.91;;;14.71;62.86
48630;BME280;34426;52.180;4.462;2023-04-30T10:12:08;102476.59;;;14.87;63.51
48630;BME280;34426;52.180;4.462;2023-04-30T10:14:37;102475.03;;;14.96;62.18
48630;BME280;34426;52.180;4.462;2023-04-30T10:17:10;102475.28;;;15.11;62.32
48630;BME280;34426;52.180;4.462;2023-04-30T10:19:41;102473.44;;;15.22;62.13
48630;BME280;34426;52.180;4.462;2023-04-30T10:22:10;102475.56;;;15.31;60.23
48630;BME280;34426;52.180;4.462;2023-04-30T10:24:38;102464.97;;;15.39;62.52
48630;BME280;34426;52.180;4.462;2023-04-30T10:27:05;102477.56;;;15.53;61.00
48630;BME280;34426;52.180;4.462;2023-04-30T10:29:33;102460.13;;;15.56;61.05
48630;BME280;34426;52.180;4.462;2023-04-30T10:32:01;102462.63;;;15.74;59.83
48630;BME280;34426;52.180;4.462;2023-04-30T10:34:42;102456.59;;;15.87;58.76
48630;BME280;34426;52.180;4.462;2023-04-30T10:37:17;102457.03;;;15.79;57.45
48630;BME280;34426;52.180;4.462;2023-04-30T10:39:47;102458.50;;;15.82;60.46
48630;BME280;34426;52.180;4.462;2023-04-30T10:42:14;102454.16;;;15.96;59.61
48630;BME280;34426;52.180;4.462;2023-04-30T10:44:42;102457.75;;;15.91;60.49
48630;BME280;34426;52.180;4.462;2023-04-30T10:47:09;102453.94;;;16.03;58.41
48630;BME280;34426;52.180;4.462;2023-04-30T10:49:38;102446.66;;;16.12;58.01
48630;BME280;34426;52.180;4.462;2023-04-30T10:52:06;102443.47;;;16.30;57.33
48630;BME280;34426;52.180;4.462;2023-04-30T10:54:34;102442.94;;;16.33;58.08
48630;BME280;34426;52.180;4.462;2023-04-30T10:57:12;102441.34;;;16.47;55.86
48630;BME280;34426;52.180;4.462;2023-04-30T10:59:42;102435.16;;;16.45;59.93
48630;BME280;34426;52.180;4.462;2023-04-30T11:02:11;102426.63;;;16.40;57.20
48630;BME280;34426;52.180;4.462;2023-04-30T11:05:10;102427.88;;;16.54;56.92
48630;BME280;34426;52.180;4.462;2023-04-30T11:07:46;102422.69;;;16.41;57.98
48630;BME280;34426;52.180;4.462;2023-04-30T11:10:14;102421.56;;;16.42;57.09
48630;BME280;34426;52.180;4.462;2023-04-30T11:12:47;102419.88;;;16.46;58.82
48630;BME280;34426;52.180;4.462;2023-04-30T11:15:19;102414.28;;;16.51;58.29
48630;BME280;34426;52.180;4.462;2023-04-30T11:17:47;102413.25;;;16.62;57.28
48630;BME280;34426;52.180;4.462;2023-04-30T11:20:22;102417.28;;;16.67;56.24
48630;BME280;34426;52.180;4.462;2023-04-30T11:23:08;102411.38;;;16.73;58.08
48630;BME280;34426;52.180;4.462;2023-04-30T11:25:43;102415.66;;;16.76;58.35
48630;BME280;34426;52.180;4.462;2023-04-30T11:28:16;102406.94;;;16.82;55.30
48630;BME280;34426;52.180;4.462;2023-04-30T11:30:54;102404.19;;;16.98;56.88
48630;BME280;34426;52.180;4.462;2023-04-30T11:33:25;102398.22;;;16.94;58.13
48630;BME280;34426;52.180;4.462;2023-04-30T11:35:55;102392.06;;;17.02;58.20
48630;BME280;34426;52.180;4.462;2023-04-30T11:38:30;102394.41;;;17.15;57.63
48630;BME280;34426;52.180;4.462;2023-04-30T11:41:00;102376.13;;;17.43;55.42
48630;BME280;34426;52.180;4.462;2023-04-30T11:43:28;102383.25;;;17.51;56.07
48630;BME280;34426;52.180;4.462;2023-04-30T11:46:04;102383.53;;;17.54;55.48
48630;BME280;34426;52.180;4.462;2023-04-30T11:48:33;102377.41;;;17.83;55.43
48630;BME280;34426;52.180;4.462;2023-04-30T11:51:12;102372.53;;;17.63;55.65
48630;BME280;34426;52.180;4.462;2023-04-30T11:53:40;102373.59;;;17.47;55.01
48630;BME280;34426;52.180;4.462;2023-04-30T11:56:07;102373.47;;;17.11;55.65
48630;BME280;34426;52.180;4.462;2023-04-30T11:58:35;102363.41;;;17.41;54.99
48630;BME280;34426;52.180;4.462;2023-04-30T12:01:03;102362.97;;;17.69;56.45
48630;BME280;34426;52.180;4.462;2023-04-30T12:03:31;102359.59;;;17.92;54.23
48630;BME280;34426;52.180;4.462;2023-04-30T12:05:58;102358.19;;;17.95;53.57
48630;BME280;34426;52.180;4.462;2023-04-30T12:08:28;102357.34;;;18.25;52.24
48630;BME280;34426;52.180;4.462;2023-04-30T12:10:55;102356.50;;;18.29;53.44
48630;BME280;34426;52.180;4.462;2023-04-30T12:13:22;102359.91;;;18.42;52.54
48630;BME280;34426;52.180;4.462;2023-04-30T12:15:59;102349.72;;;18.41;51.47
48630;BME280;34426;52.180;4.462;2023-04-30T12:18:26;102344.31;;;18.54;52.77
48630;BME280;34426;52.180;4.462;2023-04-30T12:20:54;102341.78;;;18.33;52.73
48630;BME280;34426;52.180;4.462;2023-04-30T12:23:21;102337.22;;;18.57;51.60
48630;BME280;34426;52.180;4.462;2023-04-30T12:25:51;102335.25;;;18.47;52.01
48630;BME280;34426;52.180;4.462;2023-04-30T12:28:18;102338.91;;;18.78;51.16
48630;BME280;34426;52.180;4.462;2023-04-30T12:30:47;102337.78;;;18.79;50.50
48630;BME280;34426;52.180;4.462;2023-04-30T12:33:17;102328.31;;;19.09;50.94
48630;BME280;34426;52.180;4.462;2023-04-30T12:35:44;102334.06;;;18.89;49.41
48630;BME280;34426;52.180;4.462;2023-04-30T12:38:15;102330.13;;;18.80;51.14
48630;BME280;34426;52.180;4.462;2023-04-30T12:40:47;102326.00;;;19.21;49.10
48630;BME280;34426;52.180;4.462;2023-04-30T12:43:16;102325.75;;;19.72;49.38
48630;BME280;34426;52.180;4.462;2023-04-30T12:45:45;102324.84;;;20.16;47.29
48630;BME280;34426;52.180;4.462;2023-04-30T12:48:14;102312.31;;;20.22;49.94
48630;BME280;34426;52.180;4.462;2023-04-30T12:50:41;102316.84;;;20.23;46.08
48630;BME280;34426;52.180;4.462;2023-04-30T12:53:09;102315.78;;;20.14;45.08
48630;BME280;34426;52.180;4.462;2023-04-30T12:55:36;102318.13;;;20.70;44.19
48630;BME280;34426;52.180;4.462;2023-04-30T12:58:08;102313.28;;;20.36;45.70
48630;BME280;34426;52.180;4.462;2023-04-30T13:00:50;102306.00;;;21.31;45.23
48630;BME280;34426;52.180;4.462;2023-04-30T13:03:19;102296.88;;;21.71;42.51
48630;BME280;34426;52.180;4.462;2023-04-30T13:05:48;102290.72;;;22.02;42.87